Date,TemperatureHighF,TemperatureAvgF,TemperatureLowF,DewpointHighF,DewpointAvgF,DewpointLowF,HumidityHigh,HumidityAvg,HumidityLow,PressureMaxIn,PressureMinIn,WindSpeedMaxMPH,WindSpeedAvgMPH,GustSpeedMaxMPH,PrecipitationSumIn
2013-1-1,45.4,42.0,38.2,41.0,37.0,30.0,85,82,72,30.19,30.04,2,0,0,0.34
2013-1-2,48.3,44.3,40.1,41.0,36.9,30.0,90,76,63,30.26,30.01,4,0,0,0.07
2013-1-3,42.8,37.9,29.1,34.0,29.6,24.0,82,72,67,30.38,30.22,5,0,0,0.01
2013-1-4,47.6,34.2,24.5,26.0,19.9,14.0,82,60,28,30.46,30.33,7,1,0,0.00
2013-1-5,47.1,34.8,23.6,30.0,21.7,17.0,81,62,30,30.50,30.33,4,0,0,0.01
2013-1-6,51.2,40.6,34.3,36.0,31.3,26.0,83,70,51,30.33,30.14,5,0,0,0.02
2013-1-7,46.5,35.0,26.2,28.0,23.9,21.0,82,66,40,30.53,30.30,6,0,0,0.01
2013-1-8,48.6,36.5,24.4,37.0,28.4,19.0,84,74,55,30.58,30.48,4,0,0,0.00
2013-1-9,58.8,47.9,38.3,48.0,40.4,33.0,83,76,62,30.55,30.47,3,0,0,0.00
2013-1-10,63.3,51.0,42.8,46.0,38.5,33.0,86,65,40,30.61,30.47,7,1,0,0.00
2013-1-11,50.6,45.3,43.2,42.0,40.2,34.0,85,82,55,30.47,30.25,7,1,0,0.17
2013-1-12,63.8,53.5,45.8,57.0,48.7,42.0,87,84,77,30.27,30.18,1,0,0,0.01
2013-1-13,69.2,57.9,47.0,58.0,51.8,43.0,88,80,67,30.20,30.10,5,0,0,0.00
2013-1-14,62.5,59.8,53.9,59.0,55.8,49.0,87,86,83,30.21,30.12,2,0,0,0.53
2013-1-15,56.5,45.3,40.3,53.0,41.2,36.0,87,85,84,30.28,30.17,9,2,0,0.77
2013-1-16,47.4,43.6,40.3,43.0,39.7,36.0,86,86,85,30.17,30.06,1,0,0,0.49
2013-1-17,48.7,42.8,32.6,45.0,38.9,28.0,87,86,83,30.28,29.96,14,3,0,2.41
2013-1-18,43.9,34.3,28.3,29.0,25.6,21.0,85,72,41,30.62,30.28,5,0,0,0.04
2013-1-19,49.0,34.3,25.5,31.0,25.8,21.0,85,73,46,30.60,30.27,2,0,0,0.00
2013-1-20,58.4,40.5,27.5,36.0,26.7,23.0,86,62,28,30.27,30.12,2,0,0,0.01
2013-1-21,54.9,39.7,27.4,32.0,21.8,10.0,85,54,26,30.18,30.01,14,2,0,0.00
2013-1-22,38.2,31.2,25.4,10.0,-1.2,-13.0,44,26,12,30.36,30.10,13,2,0,0.00
2013-1-23,42.6,30.7,20.7,19.0,11.7,-3.0,70,47,26,30.46,30.16,4,0,0,0.00
2013-1-24,40.4,31.9,23.7,25.0,9.4,-2.0,79,43,19,30.62,30.09,12,3,0,0.00
2013-1-25,25.9,23.3,19.0,21.0,13.5,3.0,81,67,41,30.63,30.24,1,0,0,0.01
2013-1-26,35.6,29.3,25.4,31.0,24.6,21.0,83,82,81,30.50,30.22,1,0,0,0.01
2013-1-27,39.3,30.9,22.3,28.0,23.0,18.0,84,73,55,30.69,30.50,5,0,0,0.03
2013-1-28,50.3,39.9,33.8,41.0,32.8,28.0,83,76,62,30.59,30.34,1,0,0,0.01
2013-1-29,69.9,49.7,33.8,54.0,42.3,30.0,87,77,57,30.34,30.11,0,0,0,0.01
2013-1-30,67.3,61.0,51.8,59.0,55.6,47.0,86,82,73,30.11,29.49,7,1,0,1.78
2013-1-31,50.6,39.6,31.7,46.0,22.8,16.0,84,52,36,30.10,29.56,18,4,0,0.02
2013-2-1,37.3,30.8,24.2,24.0,8.2,-2.0,66,41,23,30.47,30.00,22,3,0,0.00
2013-2-2,40.4,30.6,19.8,30.0,14.2,7.0,80,53,26,30.50,30.14,4,0,0,0.02
2013-2-3,46.3,37.4,28.6,29.0,24.1,18.0,83,61,37,30.14,29.97,14,2,0,0.00
2013-2-4,48.6,35.8,25.7,25.0,20.6,17.0,74,56,33,30.24,30.09,2,0,0,0.00
2013-2-5,57.9,42.3,30.1,33.0,27.2,24.0,81,58,28,30.09,29.99,7,1,0,0.00
2013-2-6,58.3,41.7,29.7,34.0,21.9,10.0,85,53,15,30.35,30.08,11,1,0,0.00
2013-2-7,42.1,38.1,33.4,34.0,29.2,22.0,84,71,54,30.41,30.14,10,2,0,0.82
2013-2-8,54.3,43.7,36.2,43.0,32.5,23.0,86,67,34,30.20,29.97,9,2,0,0.05
2013-2-9,53.9,38.7,27.0,24.0,19.2,9.0,78,51,17,30.44,30.20,5,0,0,0.00
2013-2-10,52.9,39.6,28.9,36.0,24.6,17.0,82,60,24,30.55,30.28,4,0,0,0.19
2013-2-11,56.2,47.5,40.7,52.0,42.9,36.0,86,84,80,30.28,30.04,5,0,0,0.07
2013-2-12,55.3,45.5,35.2,38.0,31.1,20.0,83,61,26,30.20,30.02,4,0,0,0.02
2013-2-13,44.7,42.3,38.5,41.0,37.3,29.0,85,82,65,30.03,29.75,6,0,0,0.20
2013-2-14,50.4,38.8,28.6,32.0,27.6,23.0,83,66,44,30.16,29.97,8,1,0,0.00
2013-2-15,57.9,41.6,27.4,36.0,28.1,23.0,85,63,30,30.20,30.02,6,1,0,0.01
2013-2-16,43.0,35.2,28.4,28.0,22.5,12.0,80,61,46,30.10,29.93,13,2,0,0.03
2013-2-17,37.7,29.7,23.6,15.0,7.0,2.0,60,40,23,30.37,30.11,11,3,0,0.00
2013-2-18,50.4,34.0,19.5,25.0,17.5,11.0,77,54,30,30.49,30.30,3,0,0,0.01
2013-2-19,49.2,40.2,31.7,40.0,27.4,12.0,84,63,29,30.32,29.96,10,1,0,0.09
2013-2-20,52.4,39.6,26.5,15.0,5.9,-6.0,61,28,9,30.23,30.11,11,1,0,0.00
2013-2-21,54.0,37.5,22.9,32.0,15.9,6.0,78,46,15,30.39,30.20,4,0,0,0.05
2013-2-22,37.9,35.6,34.1,33.0,30.7,29.0,84,82,78,30.41,30.23,6,1,0,0.45
2013-2-23,46.4,39.6,34.3,40.0,34.6,30.0,85,82,75,30.25,29.94,4,0,0,0.20
2013-2-24,59.9,46.3,35.7,37.0,28.3,19.0,86,56,22,30.12,29.95,9,1,0,0.00
2013-2-25,41.8,35.8,29.4,25.0,23.3,21.0,79,62,49,30.30,30.12,11,2,0,0.00
2013-2-26,38.2,35.0,31.5,34.0,29.1,20.0,85,80,53,30.21,29.71,9,2,0,1.47
2013-2-27,55.3,42.7,35.1,37.0,33.6,29.0,90,72,47,29.91,29.77,7,1,0,0.01
2013-2-28,45.2,40.5,34.7,29.0,23.4,21.0,62,51,41,30.00,29.83,7,2,0,0.00
2013-3-1,44.1,39.3,32.8,27.0,24.9,23.0,72,57,46,30.03,29.96,6,1,0,0.00
2013-3-2,42.9,36.5,30.9,34.0,25.4,16.0,82,65,43,30.05,29.92,8,1,0,0.06
2013-3-3,41.9,32.2,24.3,16.0,13.5,11.0,69,47,33,30.13,30.01,11,3,0,0.00
2013-3-4,52.4,36.1,21.6,25.0,12.7,-1.0,74,43,11,30.24,30.11,8,1,0,0.00
2013-3-5,42.8,38.3,32.8,37.0,31.7,25.0,84,77,64,30.17,29.73,5,0,0,0.57
2013-3-6,42.4,36.6,29.8,35.0,22.1,17.0,85,57,43,30.23,29.73,16,5,0,0.00
2013-3-7,50.4,36.7,26.0,25.0,21.9,19.0,80,57,36,30.39,30.22,9,2,0,0.00
2013-3-8,54.2,38.4,24.9,24.0,19.6,15.0,80,51,23,30.44,30.32,10,1,0,0.00
2013-3-9,59.6,41.5,26.5,30.0,25.0,20.0,81,56,26,30.47,30.33,5,0,0,0.00
2013-3-10,64.4,48.7,35.5,36.0,31.4,28.0,81,55,28,30.39,30.26,4,0,0,0.00
2013-3-11,64.8,49.6,36.8,49.0,38.2,30.0,81,66,47,30.28,29.94,2,0,0,0.20
2013-3-12,61.7,53.8,43.6,51.0,38.8,22.0,86,61,24,30.07,29.82,7,2,0,1.05
2013-3-13,49.3,41.4,33.7,29.0,20.5,10.0,77,46,27,30.27,30.07,22,4,0,0.00
2013-3-14,50.1,38.8,29.5,15.0,10.9,6.0,50,34,18,30.39,30.26,9,3,0,0.00
2013-3-15,63.7,45.1,28.2,35.0,25.7,15.0,76,49,30,30.30,30.00,4,0,0,0.00
2013-3-16,77.3,59.0,42.0,44.0,40.1,34.0,82,54,29,30.00,29.76,5,1,0,0.00
2013-3-17,63.2,52.2,40.3,48.0,41.6,34.0,79,68,53,30.22,29.92,14,3,0,0.00
2013-3-18,40.0,38.0,36.4,34.0,33.0,32.0,84,82,78,30.25,29.97,9,2,0,0.37
2013-3-19,60.6,47.3,35.8,38.0,23.2,1.0,86,48,13,30.16,29.95,15,3,0,0.00
2013-3-20,55.9,44.5,33.5,21.0,11.3,3.0,56,28,12,30.21,29.90,9,1,0,0.00
2013-3-21,43.9,34.9,27.7,22.0,7.8,1.0,50,33,22,30.10,29.90,14,4,0,0.00
2013-3-22,51.2,35.4,20.3,22.0,12.7,9.0,71,43,19,30.20,30.07,6,1,0,0.00
2013-3-23,56.6,43.6,33.8,32.0,26.8,22.0,73,54,33,30.16,29.99,5,1,0,0.00
2013-3-24,44.1,40.3,36.5,37.0,34.5,32.0,87,80,68,30.02,29.64,9,2,0,0.66
2013-3-25,43.7,37.5,34.1,32.0,25.6,20.0,84,64,41,29.98,29.66,14,3,0,0.04
2013-3-26,44.9,37.9,28.7,23.0,20.7,19.0,72,51,37,30.29,29.98,11,3,0,0.00
2013-3-27,47.4,39.5,32.2,23.0,18.7,15.0,67,45,28,30.38,30.27,14,3,0,0.00
2013-3-28,53.7,38.3,24.1,25.0,18.0,12.0,81,49,19,30.41,30.31,8,2,0,0.00
2013-3-29,61.1,43.3,26.8,31.0,23.3,16.0,79,51,18,30.45,30.29,9,1,0,0.00
2013-3-30,62.4,49.6,36.1,37.0,31.2,26.0,78,53,28,30.33,30.15,7,1,0,0.00
2013-3-31,65.9,52.4,44.8,52.0,45.5,36.0,85,78,58,30.14,29.88,3,0,0,0.49
2013-4-1,66.2,54.5,42.5,47.0,38.7,30.0,86,60,30,30.06,29.92,18,2,0,0.01
2013-4-2,60.0,47.8,34.2,34.0,22.6,9.0,81,43,13,30.25,30.05,10,1,0,0.00
2013-4-3,57.8,47.8,35.8,29.0,17.2,12.0,52,31,17,30.39,30.23,8,2,0,0.00
2013-4-4,43.8,38.6,34.7,32.0,25.4,11.0,83,62,28,30.41,30.10,9,2,0,0.90
2013-4-5,65.3,48.1,36.6,42.0,34.9,26.0,86,65,24,30.15,30.01,9,1,0,0.01
2013-4-6,65.7,51.7,35.7,39.0,32.6,26.0,85,53,23,30.33,30.15,6,1,0,0.00
2013-4-7,70.0,54.1,36.4,45.0,38.8,30.0,83,59,34,30.33,30.17,5,0,0,0.00
2013-4-8,77.7,59.6,42.5,54.0,45.0,37.0,84,62,34,30.25,30.11,5,0,0,0.00
2013-4-9,82.2,64.0,46.6,54.0,47.9,41.0,84,60,32,30.27,30.14,4,0,0,0.00
2013-4-10,85.3,67.5,51.3,57.0,51.2,46.0,82,59,32,30.17,30.01,4,0,0,0.00
2013-4-11,80.2,67.5,55.0,61.0,55.1,48.0,85,66,42,30.03,29.79,4,0,0,0.22
2013-4-12,80.3,67.1,57.8,62.0,51.8,32.0,87,63,24,29.89,29.67,7,2,0,0.93
2013-4-13,75.9,59.5,41.4,43.0,32.7,19.0,82,43,12,30.11,29.89,7,1,0,0.00
2013-4-14,76.1,58.6,40.8,49.0,39.5,35.0,80,54,24,30.18,30.05,2,0,0,0.00
2013-4-15,58.9,56.1,53.4,53.0,50.8,47.0,85,82,66,30.29,30.08,6,1,0,0.36
2013-4-16,77.0,64.0,56.0,59.0,54.3,51.0,86,72,46,30.38,30.25,3,0,0,0.00
2013-4-17,75.7,65.7,55.4,59.0,55.7,51.0,85,71,49,30.30,30.18,4,0,0,0.00
2013-4-18,78.8,66.8,57.2,58.0,55.8,53.0,86,69,42,30.23,30.03,4,0,0,0.00
2013-4-19,68.8,63.8,52.1,63.0,57.4,39.0,85,80,62,30.03,29.77,3,0,0,0.29
2013-4-20,64.2,51.8,40.0,39.0,29.4,17.0,74,46,17,30.35,29.98,6,1,0,0.00
2013-4-21,60.6,48.5,34.5,37.0,32.7,28.0,82,58,34,30.56,30.36,12,2,0,0.00
2013-4-22,61.5,49.7,39.8,37.0,30.6,24.0,76,51,25,30.54,30.32,11,2,0,0.00
2013-4-23,69.9,54.4,41.3,47.0,39.4,29.0,78,58,41,30.37,30.19,7,0,0,0.00
2013-4-24,73.1,59.0,43.6,55.0,48.1,39.0,85,69,48,30.21,30.05,4,0,0,0.00
2013-4-25,69.4,57.6,46.6,53.0,34.4,22.0,77,45,17,30.37,30.12,7,1,0,0.00
2013-4-26,69.4,54.8,37.0,43.0,33.8,27.0,80,49,24,30.53,30.37,9,1,0,0.00
2013-4-27,59.5,54.8,51.7,52.0,47.3,42.0,86,76,64,30.45,30.34,1,0,0,0.19
2013-4-28,54.1,52.9,51.5,50.0,49.0,48.0,87,86,85,30.34,30.12,2,0,0,1.87
2013-4-29,70.7,59.2,52.9,58.0,53.1,49.0,87,81,60,30.16,30.02,4,0,0,0.12
2013-4-30,71.2,61.3,55.4,58.0,53.8,50.0,86,77,59,30.26,30.07,6,1,0,0.00
2013-5-1,64.6,57.9,50.4,53.0,50.6,46.0,86,77,64,30.39,30.26,8,2,0,0.00
2013-5-2,59.7,56.2,52.1,52.0,49.8,47.0,84,79,74,30.40,30.33,11,2,0,0.05
2013-5-3,63.2,57.6,52.9,50.0,47.6,44.0,84,70,56,30.34,30.21,10,2,0,0.00
2013-5-4,60.1,53.0,48.1,46.0,42.0,38.0,80,67,54,30.23,30.11,13,4,0,0.00
2013-5-5,54.5,50.7,47.3,50.0,43.9,39.0,86,78,65,30.16,29.98,15,5,0,0.98
2013-5-6,66.7,57.6,49.7,58.0,51.2,45.0,87,80,56,29.98,29.89,7,1,0,1.97
2013-5-7,70.0,54.8,46.8,53.0,47.5,43.0,86,78,44,30.04,29.93,4,0,0,0.39
2013-5-8,70.0,58.1,50.7,57.0,51.7,47.0,87,80,58,30.10,30.00,4,0,0,0.03
2013-5-9,79.5,63.0,48.3,58.0,51.6,44.0,87,69,38,30.17,30.08,4,0,0,0.01
2013-5-10,80.3,66.1,52.3,61.0,55.3,48.0,85,70,47,30.15,30.01,3,0,0,0.00
2013-5-11,76.7,66.4,59.7,61.0,57.4,55.0,86,74,51,30.02,29.86,6,0,0,0.51
2013-5-12,69.2,59.5,48.8,56.0,42.4,28.0,86,58,25,30.13,29.91,10,2,0,0.01
2013-5-13,67.8,52.8,38.3,38.0,31.9,21.0,81,50,18,30.27,30.13,8,1,0,0.00
2013-5-14,71.4,55.4,37.4,45.0,39.2,32.0,82,58,33,30.35,30.15,4,0,0,0.00
2013-5-15,86.9,66.4,46.8,65.0,53.0,42.0,84,65,42,30.15,29.99,2,0,0,0.00
2013-5-16,82.4,67.6,54.5,59.0,55.4,49.0,84,67,38,30.09,30.00,4,0,0,0.00
2013-5-17,83.5,68.8,54.1,63.0,56.5,49.0,85,67,40,30.16,30.07,4,0,0,0.00
2013-5-18,68.9,63.3,58.7,63.0,58.1,54.0,85,83,80,30.22,30.14,1,0,0,0.15
2013-5-19,77.0,69.8,65.1,68.0,63.5,61.0,87,81,70,30.19,30.09,2,0,0,0.02
2013-5-20,81.0,70.3,65.3,67.0,63.1,61.0,87,78,56,30.19,30.07,5,0,0,0.03
2013-5-21,85.4,71.7,59.8,69.0,62.4,56.0,87,74,49,30.13,29.98,2,0,0,0.00
2013-5-22,84.0,69.6,61.5,68.0,61.1,56.0,86,76,48,30.06,29.95,7,1,0,0.32
2013-5-23,77.1,66.8,61.4,66.0,60.5,56.0,87,81,64,30.05,29.88,5,0,0,0.10
2013-5-24,70.9,61.7,47.1,57.0,43.8,29.0,84,56,23,30.29,29.94,8,2,0,0.00
2013-5-25,76.7,58.8,41.8,46.0,37.7,30.0,81,51,18,30.39,30.24,7,0,0,0.00
2013-5-26,74.3,61.5,52.0,51.0,46.1,37.0,80,59,35,30.36,30.24,4,0,0,0.00
2013-5-27,80.3,65.6,50.4,56.0,52.1,45.0,84,64,40,30.36,30.20,2,0,0,0.00
2013-5-28,83.2,68.8,55.6,63.0,57.6,51.0,84,69,46,30.29,30.20,2,0,0,0.00
2013-5-29,84.4,70.9,57.4,64.0,58.3,53.0,85,67,42,30.30,30.21,2,0,0,0.00
2013-5-30,83.4,69.0,56.1,64.0,57.7,51.0,84,69,46,30.34,30.23,3,0,0,0.00
2013-5-31,84.7,70.9,57.2,65.0,59.0,52.0,85,68,45,30.29,30.16,3,0,0,0.00
2013-6-1,85.0,73.1,62.6,65.0,60.7,58.0,84,67,47,30.19,30.07,2,0,0,0.00
2013-6-2,77.6,69.5,65.0,69.0,62.7,59.0,87,79,69,30.09,29.98,5,0,0,2.04
2013-6-3,82.2,70.8,64.5,69.0,63.5,61.0,87,78,53,30.04,29.89,2,0,0,0.00
2013-6-4,76.8,69.0,64.2,63.0,60.6,57.0,86,75,59,30.16,30.02,5,1,0,0.01
2013-6-5,73.6,67.5,63.4,64.0,60.8,58.0,84,79,70,30.19,30.07,7,1,0,0.06
2013-6-6,74.8,68.7,64.4,69.0,64.2,60.0,87,85,81,30.07,29.86,2,0,0,2.72
2013-6-7,81.3,70.1,65.5,69.0,63.9,62.0,87,81,56,29.91,29.72,7,0,0,0.27
2013-6-8,80.1,70.7,62.2,67.0,63.3,58.0,87,78,56,30.15,29.88,3,0,0,0.09
2013-6-9,82.8,70.8,62.8,69.0,64.0,59.0,87,80,57,30.21,30.10,5,0,0,0.45
2013-6-10,76.7,69.7,65.6,70.0,65.0,61.0,88,85,77,30.15,29.95,6,0,0,1.54
2013-6-11,83.1,71.4,63.6,66.0,62.0,58.0,88,74,45,30.06,29.98,6,1,0,0.04
2013-6-12,87.3,74.8,61.3,75.0,66.1,57.0,86,75,55,30.07,29.95,5,0,0,0.00
2013-6-13,89.1,75.0,67.8,71.0,65.4,60.0,87,73,48,29.92,29.72,11,1,0,0.38
2013-6-14,81.5,70.7,59.2,62.0,53.9,48.0,81,58,34,30.10,29.86,6,1,0,0.00
2013-6-15,81.4,68.9,56.1,64.0,57.4,51.0,85,68,47,30.21,30.11,2,0,0,0.00
2013-6-16,84.1,72.0,60.5,67.0,61.5,56.0,84,71,50,30.20,30.07,2,0,0,0.00
2013-6-17,84.3,72.3,67.8,70.0,64.6,62.0,86,77,56,30.10,30.04,3,0,0,0.15
2013-6-18,77.4,70.8,66.6,70.0,65.7,62.0,86,84,75,30.02,29.86,1,0,0,0.34
2013-6-19,79.1,70.2,60.7,64.0,61.3,57.0,87,74,53,30.18,29.98,2,0,0,0.01
2013-6-20,80.1,69.8,62.9,65.0,61.9,58.0,86,77,56,30.31,30.19,7,0,0,0.00
2013-6-21,83.8,70.8,60.8,64.0,59.7,56.0,86,70,45,30.35,30.25,4,0,0,0.00
2013-6-22,83.5,71.0,58.3,63.0,59.5,54.0,84,69,44,30.31,30.18,4,0,0,0.00
2013-6-23,86.7,74.0,62.8,68.0,63.2,58.0,85,71,47,30.28,30.17,3,0,0,0.01
2013-6-24,83.8,72.6,66.3,71.0,65.9,62.0,86,80,58,30.27,30.16,2,0,0,0.12
2013-6-25,86.4,74.5,66.8,72.0,66.5,63.0,87,77,55,30.21,30.06,6,0,0,0.01
2013-6-26,85.3,70.5,65.2,70.0,64.2,61.0,86,81,59,30.09,29.98,4,0,0,0.39
2013-6-27,82.2,73.2,65.8,72.0,67.3,62.0,88,82,69,30.01,29.80,3,0,0,0.01
2013-6-28,89.3,76.5,67.6,71.0,66.3,63.0,87,72,44,29.83,29.65,10,1,0,0.06
2013-6-29,84.1,74.3,66.2,70.0,65.5,62.0,87,75,58,29.77,29.67,3,0,0,0.01
2013-6-30,83.2,72.8,66.1,69.0,65.3,62.0,86,78,58,29.91,29.76,5,0,0,0.07
2013-7-1,81.9,72.0,65.0,68.0,64.6,61.0,87,78,59,30.03,29.89,4,0,0,0.01
2013-7-2,81.3,71.7,69.3,70.0,66.2,64.0,87,83,65,30.21,30.02,1,0,0,1.07
2013-7-3,78.4,72.2,69.0,70.0,67.3,65.0,88,85,74,30.28,30.18,4,0,0,1.71
2013-7-4,82.9,72.4,66.9,73.0,66.8,63.0,88,83,67,30.31,30.20,2,0,0,1.09
2013-7-5,79.4,72.2,69.3,72.0,67.8,65.0,88,86,75,30.32,30.25,2,0,0,1.02
2013-7-6,83.0,73.7,69.6,71.0,67.8,66.0,88,82,63,30.30,30.17,2,0,0,0.31
2013-7-7,80.2,73.8,70.8,72.0,68.9,67.0,88,85,75,30.25,30.13,0,0,0,0.38
2013-7-8,85.4,75.2,68.8,70.0,67.2,64.0,88,77,53,30.26,30.15,1,0,0,0.03
2013-7-9,87.9,76.9,69.0,71.0,67.9,65.0,87,75,51,30.22,30.11,2,0,0,1.53
2013-7-10,82.2,74.4,68.9,73.0,68.5,65.0,87,82,70,30.16,30.01,2,0,0,0.01
2013-7-11,79.8,72.8,67.6,72.0,67.1,63.0,87,82,72,30.03,29.93,1,0,0,0.13
2013-7-12,79.9,71.7,67.0,68.0,65.1,61.0,87,80,65,30.09,29.95,8,1,0,0.00
2013-7-13,79.0,71.3,66.6,68.0,64.3,61.0,84,79,66,30.20,30.10,7,1,0,0.01
2013-7-14,84.1,74.5,69.4,72.0,67.7,65.0,87,80,61,30.36,30.18,6,1,0,0.69
2013-7-15,85.9,74.8,67.3,69.0,66.3,63.0,87,76,54,30.40,30.32,5,0,0,0.00
2013-7-16,89.8,76.4,66.0,72.0,66.3,62.0,87,73,45,30.38,30.27,3,0,0,0.00
2013-7-17,90.7,77.5,69.9,73.0,68.5,65.0,86,75,52,30.32,30.21,5,0,0,0.20
2013-7-18,88.5,76.5,68.2,73.0,68.2,64.0,87,76,50,30.23,30.12,4,0,0,0.00
2013-7-19,87.2,77.0,68.4,73.0,69.1,64.0,87,77,60,30.17,30.04,1,0,0,0.00
2013-7-20,85.5,73.5,68.9,73.0,68.0,64.0,88,83,63,30.09,30.00,1,0,0,0.06
2013-7-21,85.2,72.7,67.6,73.0,67.5,64.0,88,84,65,30.08,30.00,3,0,0,0.18
2013-7-22,83.8,74.6,69.2,73.0,68.1,65.0,88,80,65,30.05,29.89,7,0,0,0.01
2013-7-23,84.7,74.2,66.8,70.0,66.2,63.0,87,77,54,29.93,29.82,4,0,0,0.07
2013-7-24,89.5,75.4,66.3,71.0,65.9,62.0,86,73,43,29.93,29.82,7,0,0,0.12
2013-7-25,81.3,72.6,65.9,68.0,64.0,60.0,87,75,55,30.10,29.91,8,1,0,0.01
2013-7-26,81.9,73.3,67.3,69.0,65.2,63.0,86,76,58,30.18,30.07,4,0,0,0.00
2013-7-27,75.0,69.5,66.7,68.0,64.9,63.0,88,85,77,30.09,29.99,6,0,0,4.60
2013-7-28,82.8,73.3,67.8,70.0,66.1,64.0,87,79,60,30.06,29.98,4,0,0,0.00
2013-7-29,84.2,71.7,62.2,66.0,61.8,58.0,87,73,46,30.24,30.06,4,0,0,0.00
2013-7-30,79.8,70.9,62.6,67.0,61.3,56.0,84,72,54,30.31,30.21,5,0,0,0.00
2013-7-31,75.4,70.4,67.5,68.0,65.4,63.0,87,84,74,30.23,30.06,2,0,0,0.31
2013-8-1,82.8,73.4,68.3,71.0,66.8,64.0,88,80,60,30.06,29.94,1,0,0,0.01
2013-8-2,82.4,73.2,65.2,68.0,64.8,61.0,86,76,57,30.11,29.99,0,0,0,0.01
2013-8-3,84.0,74.5,67.0,71.0,66.4,63.0,87,77,54,30.09,30.00,2,0,0,0.00
2013-8-4,84.1,73.2,67.1,68.0,63.4,59.0,84,73,44,30.10,29.99,5,0,0,0.00
2013-8-5,81.1,71.5,64.2,68.0,62.6,58.0,85,74,61,30.16,30.04,2,0,0,0.12
2013-8-6,75.9,70.2,64.8,68.0,64.9,61.0,87,83,75,30.12,30.04,1,0,0,0.17
2013-8-7,76.9,71.8,69.1,71.0,66.8,65.0,87,84,78,30.16,30.09,0,0,0,0.07
2013-8-8,83.3,74.3,69.8,73.0,68.8,66.0,87,83,68,30.14,30.06,1,0,0,0.11
2013-8-9,86.0,75.7,69.7,75.0,69.4,66.0,87,81,64,30.12,30.04,3,0,0,0.01
2013-8-10,87.5,74.8,70.2,76.0,68.6,66.0,87,81,60,30.19,30.11,0,0,0,1.96
2013-8-11,86.0,77.1,69.7,73.0,69.5,65.0,88,78,58,30.20,30.10,0,0,0,0.00
2013-8-12,88.2,75.9,69.8,72.0,68.2,66.0,87,78,52,30.13,30.02,0,0,0,0.36
2013-8-13,83.2,72.9,68.1,74.0,67.6,64.0,88,84,62,30.03,29.88,1,0,0,0.06
2013-8-14,76.0,69.3,63.1,66.0,61.0,58.0,86,75,57,30.16,29.94,1,0,0,0.00
2013-8-15,70.3,63.0,56.0,58.0,54.7,51.0,85,75,59,30.25,30.15,5,0,0,0.00
2013-8-16,72.0,63.5,57.4,58.0,55.3,52.0,84,75,57,30.27,30.18,0,0,0,0.00
2013-8-17,65.5,62.1,58.0,59.0,56.7,53.0,86,82,75,30.30,30.23,7,0,0,0.22
2013-8-18,75.5,67.5,62.7,66.0,62.3,59.0,87,83,71,30.31,30.22,0,0,0,0.42
2013-8-19,73.5,69.0,66.8,66.0,64.2,62.0,87,84,73,30.26,30.16,0,0,0,0.52
2013-8-20,77.7,70.2,65.5,68.0,64.6,61.0,87,82,70,30.27,30.19,0,0,0,0.00
2013-8-21,81.0,71.6,66.8,70.0,66.3,63.0,87,83,64,30.31,30.19,0,0,0,0.09
2013-8-22,85.7,74.9,68.4,71.0,67.1,63.0,87,78,54,30.23,30.07,0,0,0,0.00
2013-8-23,83.8,71.6,65.0,70.0,64.9,60.0,87,80,54,30.16,30.04,7,0,0,0.63
2013-8-24,78.0,68.2,60.3,62.0,57.1,52.0,85,70,43,30.38,30.17,6,1,0,0.00
2013-8-25,77.7,66.1,56.9,62.0,56.3,52.0,87,73,43,30.47,30.37,0,0,0,0.00
2013-8-26,79.3,67.3,56.4,65.0,58.5,52.0,86,75,52,30.41,30.19,0,0,0,0.00
2013-8-27,85.0,72.3,63.4,70.0,64.5,59.0,86,77,52,30.22,30.06,0,0,0,0.00
2013-8-28,83.8,75.0,67.5,72.0,67.5,63.0,86,78,64,30.08,29.98,0,0,0,0.00
2013-8-29,88.3,77.5,69.7,73.0,68.6,65.0,87,75,50,30.07,29.95,0,0,0,0.06
2013-8-30,81.5,74.3,69.9,69.0,66.4,65.0,85,77,58,30.13,30.00,0,0,0,0.01
2013-8-31,84.9,72.9,66.9,73.0,66.3,62.0,86,80,65,30.03,29.93,0,0,0,0.02
2013-9-1,84.3,71.4,66.4,73.0,65.6,62.0,87,82,65,29.98,29.86,0,0,0,0.86
2013-9-2,83.5,73.2,66.5,71.0,66.4,61.0,88,80,61,29.98,29.88,0,0,0,0.16
2013-9-3,83.0,72.8,65.4,69.0,63.4,60.0,87,74,50,30.05,29.88,0,0,0,0.01
2013-9-4,79.9,69.8,60.4,66.0,60.8,56.0,85,74,53,30.17,30.04,0,0,0,0.00
2013-9-5,80.4,70.4,61.8,66.0,61.1,57.0,86,73,48,30.19,30.12,0,0,0,0.00
2013-9-6,77.0,68.3,60.0,63.0,58.6,55.0,84,72,53,30.28,30.16,0,0,0,0.00
2013-9-7,77.0,68.0,58.8,65.0,60.3,54.0,85,77,62,30.22,30.05,0,0,0,0.00
2013-9-8,82.4,71.1,61.7,67.0,62.5,57.0,87,75,49,30.07,30.00,0,0,0,0.00
2013-9-9,82.9,72.6,64.2,69.0,63.9,59.0,86,75,55,30.22,30.07,0,0,0,0.00
2013-9-10,82.7,72.3,63.0,69.0,64.0,58.0,87,76,56,30.31,30.21,0,0,0,0.00
2013-9-11,83.0,73.3,66.8,71.0,66.0,62.0,87,78,62,30.28,30.15,0,0,0,0.01
2013-9-12,84.2,73.1,66.1,70.0,65.8,62.0,87,78,58,30.14,29.91,0,0,0,0.00
2013-9-13,78.5,69.7,59.7,65.0,56.2,49.0,85,64,39,29.99,29.87,7,1,0,0.00
2013-9-14,70.8,60.9,51.9,55.0,49.8,46.0,81,68,48,30.21,30.00,8,0,0,0.00
2013-9-15,73.1,62.6,51.8,61.0,54.4,47.0,86,75,58,30.32,30.20,4,0,0,0.00
2013-9-16,80.6,68.1,58.1,63.0,58.1,53.0,87,72,48,30.26,30.14,5,0,0,0.00
2013-9-17,69.9,64.3,58.8,57.0,53.3,51.0,79,68,54,30.39,30.26,7,1,0,0.00
2013-9-18,70.0,62.5,56.4,57.0,52.2,49.0,80,70,57,30.39,30.25,4,0,0,0.00
2013-9-19,73.6,65.4,59.8,63.0,57.8,54.0,84,77,64,30.28,30.16,2,0,0,0.00
2013-9-20,80.3,68.8,60.1,65.0,60.8,55.0,87,77,54,30.17,29.98,2,0,0,0.00
2013-9-21,71.0,67.8,63.0,65.0,62.7,59.0,86,83,79,30.01,29.78,2,0,0,1.74
2013-9-22,69.9,60.1,53.1,59.0,53.9,48.0,87,80,54,30.01,29.80,6,0,0,0.01
2013-9-23,68.2,59.7,52.7,57.0,51.4,48.0,84,75,59,30.16,30.01,4,0,0,0.00
2013-9-24,72.6,63.2,55.6,59.0,55.0,51.0,85,75,54,30.17,30.01,1,0,0,0.00
2013-9-25,67.5,60.8,57.2,59.0,55.4,52.0,86,82,71,30.02,29.95,1,0,0,0.16
2013-9-26,70.9,62.2,55.9,57.0,53.3,49.0,86,74,48,30.14,29.97,8,0,0,0.00
2013-9-27,70.7,60.9,52.5,55.0,51.5,48.0,86,73,52,30.28,30.14,5,0,0,0.01
2013-9-28,68.2,59.8,53.4,55.0,51.0,48.0,85,74,55,30.34,30.25,7,0,0,0.00
2013-9-29,68.9,59.7,51.4,56.0,52.0,46.0,84,76,60,30.28,30.12,2,0,0,0.00
2013-9-30,70.6,61.4,51.5,58.0,52.8,47.0,86,74,51,30.19,30.07,3,0,0,0.00
2013-10-1,74.8,66.4,53.8,60.0,56.5,49.0,87,72,53,30.22,30.11,2,0,0,0.00
2013-10-2,77.9,64.7,54.0,61.0,55.9,49.0,87,74,50,30.25,30.14,2,0,0,0.01
2013-10-3,77.1,65.8,57.2,63.0,57.8,52.0,87,76,56,30.22,30.13,2,0,0,0.00
2013-10-4,80.4,66.7,56.0,65.0,58.4,51.0,87,76,51,30.23,30.15,2,0,0,0.00
2013-10-5,79.8,67.9,58.5,66.0,59.7,54.0,87,76,55,30.22,30.11,2,0,0,0.01
2013-10-6,77.9,67.1,58.4,65.0,59.2,54.0,87,77,57,30.13,29.96,1,0,0,0.00
2013-10-7,71.5,65.0,54.0,64.0,58.6,49.0,87,80,62,30.10,29.88,4,0,0,2.35
2013-10-8,65.3,56.2,49.0,49.0,45.9,44.0,84,70,49,30.32,30.10,8,1,0,0.01
2013-10-9,67.1,55.4,46.4,49.0,42.4,38.0,84,64,36,30.34,30.22,6,1,0,0.00
2013-10-10,71.2,57.7,45.9,58.0,49.4,41.0,86,75,60,30.24,30.07,5,0,0,0.00
2013-10-11,75.5,64.9,56.7,59.0,54.3,51.0,83,70,46,30.08,29.99,6,0,0,0.00
2013-10-12,71.2,63.2,56.8,59.0,55.5,51.0,84,76,64,30.18,30.05,1,0,0,0.00
2013-10-13,70.6,64.6,60.4,59.0,57.6,56.0,85,78,64,30.30,30.18,6,1,0,0.03
2013-10-14,68.3,62.4,57.2,57.0,55.1,52.0,85,77,66,30.33,30.23,8,1,0,0.08
2013-10-15,69.5,60.2,54.5,54.0,51.5,49.0,84,74,50,30.30,30.14,5,0,0,0.00
2013-10-16,69.5,60.2,51.4,58.0,53.0,47.0,86,77,61,30.18,30.04,2,0,0,0.00
2013-10-17,67.7,62.1,58.0,61.0,57.4,53.0,87,84,79,30.06,29.91,1,0,0,0.08
2013-10-18,65.9,57.4,48.9,56.0,49.9,44.0,86,77,55,30.13,29.97,3,0,0,0.01
2013-10-19,61.8,56.1,51.9,57.0,51.4,47.0,87,84,80,30.07,29.92,1,0,0,0.02
2013-10-20,59.4,49.5,41.3,47.0,39.7,36.0,85,71,45,30.20,30.02,6,0,0,0.01
2013-10-21,63.1,49.6,39.2,51.0,42.7,35.0,86,78,62,30.26,30.09,1,0,0,0.00
2013-10-22,63.7,54.7,50.9,53.0,49.1,46.0,86,81,67,30.11,29.88,2,0,0,0.01
2013-10-23,58.2,51.1,41.8,49.0,38.5,28.0,85,65,39,30.13,29.81,18,2,0,0.01
2013-10-24,53.8,44.3,33.3,37.0,31.7,27.0,82,63,43,30.27,30.11,7,0,0,0.00
2013-10-25,47.9,39.6,32.2,34.0,27.7,25.0,82,64,41,30.50,30.27,9,1,0,0.00
2013-10-26,52.7,39.7,28.2,36.0,29.0,23.0,84,68,45,30.49,30.18,2,0,0,0.00
2013-10-27,62.6,50.2,39.6,46.0,40.2,34.0,84,70,51,30.23,30.13,4,0,0,0.00
2013-10-28,61.6,52.3,45.4,50.0,45.8,41.0,86,79,65,30.35,30.20,4,0,0,0.00
2013-10-29,68.3,55.2,45.1,52.0,47.1,41.0,87,76,51,30.43,30.32,4,0,0,0.00
2013-10-30,73.3,59.7,50.9,57.0,51.5,46.0,86,75,54,30.37,30.22,3,0,0,0.00
2013-10-31,66.2,58.3,50.9,58.0,51.7,46.0,87,79,65,30.25,29.96,0,0,0,0.01
2013-11-1,66.0,63.0,57.6,60.0,57.0,52.0,86,80,74,29.94,29.75,3,0,0,0.17
2013-11-2,58.3,51.5,45.9,54.0,46.2,35.0,86,82,62,30.08,29.79,0,0,0,0.01
2013-11-3,51.8,41.5,35.4,36.0,32.8,30.0,84,72,52,30.45,30.07,5,0,0,0.00
2013-11-4,53.5,42.1,33.5,32.0,28.8,24.0,80,62,33,30.64,30.46,7,0,0,0.00
2013-11-5,56.1,44.8,32.4,45.0,35.5,26.0,84,71,57,30.68,30.54,6,0,0,0.04
2013-11-6,62.2,53.5,48.1,50.0,46.6,43.0,85,78,62,30.54,30.22,4,0,0,0.00
2013-11-7,65.2,50.2,38.2,53.0,39.6,28.0,87,69,39,30.25,30.06,12,1,0,0.01
2013-11-8,43.8,35.1,29.6,31.0,26.0,23.0,84,70,46,30.43,30.26,4,0,0,0.00
2013-11-9,49.0,35.6,28.4,32.0,26.7,22.0,83,71,47,30.48,30.31,0,0,0,0.00
2013-11-10,66.4,48.0,33.1,38.0,30.7,25.0,85,57,22,30.35,30.22,10,1,0,0.00
2013-11-11,54.8,41.3,29.2,28.0,24.9,17.0,80,56,27,30.46,30.25,4,0,0,0.00
2013-11-12,59.6,39.3,29.7,37.0,25.4,11.0,84,60,36,30.58,30.16,18,2,0,0.00
2013-11-13,45.1,32.7,23.4,21.0,13.8,8.0,76,49,22,30.66,30.56,7,0,0,0.00
2013-11-14,53.1,35.4,23.1,26.0,20.3,17.0,84,59,25,30.59,30.43,3,0,0,0.00
2013-11-15,55.5,41.2,26.3,42.0,30.2,20.0,84,67,35,30.45,30.31,1,0,0,0.17
2013-11-16,54.6,50.8,46.2,49.0,46.1,42.0,86,83,80,30.36,30.31,0,0,0,0.00
2013-11-17,61.2,55.2,52.5,54.0,50.6,48.0,86,84,77,30.30,29.97,2,0,0,0.28
2013-11-18,65.4,58.6,56.4,55.0,51.5,41.0,87,79,43,29.98,29.91,5,1,0,0.00
2013-11-22,61.7,56.6,49.0,54.0,50.8,45.0,86,81,75,30.42,30.19,1,0,0,0.01
2013-11-23,57.2,50.3,38.4,51.0,34.1,14.0,86,58,29,30.31,30.16,6,1,0,0.01
2013-11-24,38.0,29.3,24.1,15.0,10.1,3.0,54,45,35,30.63,30.31,8,1,0,0.00
2013-11-25,34.7,26.3,19.5,15.0,11.4,7.0,74,55,36,30.68,30.47,1,0,0,0.00
2013-11-26,43.0,36.2,31.4,39.0,30.8,17.0,86,81,50,30.48,29.74,7,1,0,2.79
2013-11-27,43.8,36.5,27.4,40.0,25.8,11.0,87,67,48,30.30,29.66,11,3,0,0.09
2013-11-28,40.3,29.4,20.6,22.0,17.2,12.0,79,62,37,30.59,30.31,2,0,0,0.00
2013-11-29,47.6,33.4,23.4,27.0,21.7,18.0,83,65,36,30.74,30.58,4,0,0,0.01
2013-11-30,29.1,27.5,25.9,21.0,20.1,19.0,76,74,73,30.77,30.50,2,0,0,0.00
2013-12-1,51.0,35.1,24.1,33.0,25.2,19.0,82,69,45,30.50,30.15,2,0,0,0.00
2013-12-2,53.7,40.5,28.8,37.0,30.9,24.0,85,70,46,30.14,29.93,2,0,0,0.00
2013-12-3,57.8,48.0,37.7,47.0,40.7,32.0,82,76,67,30.07,29.97,3,0,0,0.00
2013-12-4,54.8,52.2,49.9,51.0,48.2,45.0,90,86,81,30.17,30.05,0,0,0,0.07
2013-12-5,63.6,58.9,53.6,60.0,55.3,50.0,88,88,87,30.19,30.07,1,0,0,0.24
2013-12-6,73.0,66.0,61.7,63.0,60.1,56.0,88,82,66,30.09,30.00,6,0,0,0.14
2013-12-7,61.2,53.0,41.4,56.0,45.1,32.0,88,75,60,30.51,30.05,8,2,0,0.09
2013-12-8,41.3,36.3,32.6,33.0,30.0,28.0,84,78,71,30.52,30.39,6,1,0,0.09
2013-12-9,41.9,37.4,33.0,38.0,33.5,29.0,86,85,84,30.37,30.16,2,0,0,0.51
2013-12-10,48.1,41.4,29.1,44.0,31.8,17.0,87,71,43,30.41,30.02,6,1,0,0.31
2013-12-11,45.2,32.8,23.1,29.0,22.7,18.0,83,68,42,30.55,30.41,1,0,0,0.00
2013-12-12,42.8,34.1,26.9,24.0,14.3,6.0,82,47,23,30.52,30.41,7,1,0,0.00
2013-12-13,46.4,32.6,22.1,26.0,19.3,15.0,81,61,32,30.49,30.36,2,0,0,0.00
2013-12-14,37.4,36.1,34.2,33.0,29.2,25.0,85,76,68,30.39,29.91,6,0,0,0.70
2013-12-15,45.0,38.5,31.8,35.0,29.9,23.0,86,73,50,30.20,29.86,13,2,0,0.00
2013-12-16,54.4,38.1,27.0,34.0,27.6,22.0,84,68,38,30.27,30.18,4,0,0,0.00
2013-12-17,56.7,42.0,28.5,36.0,29.2,18.0,86,64,35,30.24,29.99,7,1,0,0.00
2013-12-18,47.4,37.2,27.9,22.0,16.1,4.0,74,46,17,30.39,30.17,7,1,0,0.00
2013-12-19,58.0,38.6,24.3,28.0,22.9,19.0,83,58,26,30.43,30.31,2,0,0,0.00
2013-12-20,58.5,44.4,32.1,42.0,34.5,26.0,82,69,50,30.34,30.22,5,0,0,0.00
2013-12-21,62.7,51.6,42.3,55.0,45.7,37.0,84,80,72,30.24,30.07,1,0,0,0.00
2013-12-22,66.8,60.9,55.5,61.0,56.5,51.0,88,85,74,30.13,30.05,6,0,0,1.47
2013-12-23,61.3,54.3,41.6,58.0,48.7,28.0,90,81,60,30.27,30.05,4,0,0,0.72
2013-12-24,41.3,34.8,25.9,30.0,22.0,14.0,84,61,37,30.57,30.26,7,1,0,0.00
2013-12-25,35.0,26.2,18.8,17.0,12.0,5.0,79,58,29,30.67,30.51,4,0,0,0.00
2013-12-26,47.3,30.8,20.9,25.0,19.2,15.0,82,65,37,30.50,30.37,4,0,0,0.00
2013-12-27,46.7,32.6,24.1,26.0,20.3,15.0,84,65,30,30.59,30.48,2,0,0,0.01
2013-12-28,48.8,35.7,24.2,36.0,27.3,19.0,84,73,45,30.54,30.27,5,0,0,0.13
2013-12-29,56.0,43.3,36.9,45.0,37.4,32.0,86,80,59,30.27,29.77,6,1,0,0.65
2013-12-30,49.6,39.8,31.5,40.0,33.2,28.0,86,78,64,30.13,29.95,1,0,0,0.01
2013-12-31,47.6,37.7,29.6,34.0,24.3,13.0,84,62,28,30.38,30.11,9,1,0,0.00
2014-1-1,47.7,34.6,26.9,29.0,24.7,21.0,81,68,45,30.40,30.16,2,0,0,0.00
2014-1-2,39.1,34.8,30.6,35.0,29.3,16.0,85,80,53,30.16,29.68,9,1,0,0.17